Time;durP1;ratioP1;P1;durP2;ratioP2;P2;SDS_P1;SDS_P2;PMS_P1;PMS_P2;Temp;Humidity;BMP_temperature;BMP_pressure;BME280_temperature;BME280_humidity;BME280_pressure;Samples;Min_cycle;Max_cycle;Signal;HPM_P1;HPM_P2
2022/12/04 00:01:06;;;;;;;10.32;7.65;;;;;;;;;;4980350;28;20034;-80
2022/12/04 00:03:33;;;;;;;16.95;11.82;;;;;;;;;;4981832;28;20052;-80
2022/12/04 00:06:08;;;;;;;8.27;7.47;;;;;;;;;;4980654;28;20034;-80
2022/12/04 00:08:35;;;;;;;6.97;6.25;;;;;;;;;;4993586;28;20077;-80
2022/12/04 00:11:02;;;;;;;6.43;5.72;;;;;;;;;;4996579;28;20038;-79
2022/12/04 00:13:28;;;;;;;7.88;7.18;;;;;;;;;;5002536;28;20124;-80
2022/12/04 00:15:55;;;;;;;9.95;6.30;;;;;;;;;;5043462;28;20037;-81
2022/12/04 00:18:22;;;;;;;8.98;6.75;;;;;;;;;;5012093;28;20049;-81
2022/12/04 00:20:48;;;;;;;7.75;5.65;;;;;;;;;;5010143;28;20033;-80
2022/12/04 00:23:18;;;;;;;6.05;5.10;;;;;;;;;;5025849;28;20060;-81
2022/12/04 00:25:47;;;;;;;7.13;6.43;;;;;;;;;;4993723;28;20045;-81
2022/12/04 00:28:15;;;;;;;10.02;8.20;;;;;;;;;;5026897;28;20533;-79
2022/12/04 00:30:48;;;;;;;12.55;8.55;;;;;;;;;;5007300;28;20065;-80
2022/12/04 00:33:14;;;;;;;5.18;4.47;;;;;;;;;;5003230;28;20131;-80
2022/12/04 00:35:40;;;;;;;15.70;11.00;;;;;;;;;;4989098;28;20041;-80
2022/12/04 00:38:06;;;;;;;15.20;9.20;;;;;;;;;;4988456;28;20037;-81
2022/12/04 00:40:33;;;;;;;16.30;8.30;;;;;;;;;;5006008;28;20045;-80
2022/12/04 00:42:59;;;;;;;11.63;7.95;;;;;;;;;;4987527;28;20108;-79
2022/12/04 00:45:25;;;;;;;8.20;6.82;;;;;;;;;;4999435;28;20145;-79
2022/12/04 00:47:54;;;;;;;6.68;6.07;;;;;;;;;;5006121;28;20053;-80
2022/12/04 00:50:20;;;;;;;7.13;6.35;;;;;;;;;;4984202;28;20136;-80
2022/12/04 00:52:46;;;;;;;8.68;6.35;;;;;;;;;;4970100;28;20046;-79
2022/12/04 00:55:12;;;;;;;10.18;8.82;;;;;;;;;;4978251;28;20101;-79
2022/12/04 00:57:38;;;;;;;12.48;9.07;;;;;;;;;;4956209;28;20047;-80
2022/12/04 01:00:05;;;;;;;12.35;8.52;;;;;;;;;;5003361;28;20053;-80
2022/12/04 01:02:35;;;;;;;9.20;8.30;;;;;;;;;;4997762;28;20065;-81
2022/12/04 01:05:01;;;;;;;8.15;6.85;;;;;;;;;;4984837;28;20299;-80
2022/12/04 01:07:31;;;;;;;11.15;6.93;;;;;;;;;;4989122;28;20065;-78
2022/12/04 01:09:57;;;;;;;9.00;6.10;;;;;;;;;;4986263;28;20042;-79
2022/12/04 01:12:23;;;;;;;12.60;8.13;;;;;;;;;;4963858;28;20038;-79
2022/12/04 01:14:50;;;;;;;10.00;8.50;;;;;;;;;;4968740;28;20081;-79
2022/12/04 01:17:16;;;;;;;6.70;5.65;;;;;;;;;;4964657;28;20038;-78
2022/12/04 01:19:42;;;;;;;10.57;8.43;;;;;;;;;;4978763;28;20040;-78
2022/12/04 01:22:10;;;;;;;8.00;7.20;;;;;;;;;;4960882;28;20042;-78
2022/12/04 01:24:36;;;;;;;11.43;8.43;;;;;;;;;;4964129;28;20042;-79
2022/12/04 01:27:02;;;;;;;12.32;7.00;;;;;;;;;;4979722;28;20041;-79
2022/12/04 01:29:29;;;;;;;12.25;9.38;;;;;;;;;;4956738;28;20093;-78
2022/12/04 01:31:55;;;;;;;10.38;6.63;;;;;;;;;;4966710;28;20507;-78
2022/12/04 01:34:21;;;;;;;13.98;6.68;;;;;;;;;;4966428;28;20053;-79
2022/12/04 01:36:47;;;;;;;9.85;6.82;;;;;;;;;;4948179;28;20045;-79
2022/12/04 01:39:14;;;;;;;5.78;5.25;;;;;;;;;;4979151;28;20148;-78
2022/12/04 01:41:40;;;;;;;9.88;8.27;;;;;;;;;;4981099;28;20033;-78
2022/12/04 01:44:16;;;;;;;8.20;7.35;;;;;;;;;;4976031;28;20061;-78
2022/12/04 01:46:43;;;;;;;10.43;7.82;;;;;;;;;;4948399;28;20045;-78
2022/12/04 01:49:14;;;;;;;6.45;5.45;;;;;;;;;;4974040;28;20112;-79
2022/12/04 01:51:41;;;;;;;9.48;6.53;;;;;;;;;;5021012;28;20530;-79
2022/12/04 01:54:11;;;;;;;11.23;8.50;;;;;;;;;;4995061;28;20049;-79
2022/12/04 01:56:38;;;;;;;12.48;8.20;;;;;;;;;;4969080;28;20372;-79
2022/12/04 01:59:05;;;;;;;19.80;11.10;;;;;;;;;;4977463;28;20034;-79
2022/12/04 02:01:31;;;;;;;10.20;7.88;;;;;;;;;;4982045;28;20129;-78
2022/12/04 02:03:58;;;;;;;11.88;7.88;;;;;;;;;;4977453;28;20045;-79
2022/12/04 02:06:24;;;;;;;9.30;7.03;;;;;;;;;;4989000;28;20048;-78
2022/12/04 02:08:50;;;;;;;7.65;6.50;;;;;;;;;;4960762;28;20065;-78
2022/12/04 02:11:28;;;;;;;7.43;6.50;;;;;;;;;;4999007;28;20524;-79
2022/12/04 02:14:15;;;;;;;11.55;8.25;;;;;;;;;;4973234;28;20049;-79
2022/12/04 02:17:04;;;;;;;15.27;7.68;;;;;;;;;;4996724;28;20034;-79
2022/12/04 02:19:49;;;;;;;10.25;6.55;;;;;;;;;;4977120;28;20176;-79
2022/12/04 02:22:27;;;;;;;9.88;7.05;;;;;;;;;;4993636;28;20160;-78
2022/12/04 02:25:07;;;;;;;7.93;5.10;;;;;;;;;;4966974;28;20053;-78
2022/12/04 02:27:39;;;;;;;13.25;8.45;;;;;;;;;;4976315;28;20073;-79
2022/12/04 02:30:07;;;;;;;7.18;6.30;;;;;;;;;;4993531;28;20072;-80
2022/12/04 02:32:42;;;;;;;11.00;8.57;;;;;;;;;;4945956;28;20038;-79
2022/12/04 02:35:13;;;;;;;10.60;9.40;;;;;;;;;;4981104;28;20172;-80
2022/12/04 02:37:46;;;;;;;9.65;7.30;;;;;;;;;;4996412;28;20042;-80
2022/12/04 02:40:12;;;;;;;16.60;10.15;;;;;;;;;;4979225;28;20053;-80
2022/12/04 02:42:40;;;;;;;10.75;8.60;;;;;;;;;;4956388;28;20516;-79
2022/12/04 02:45:09;;;;;;;15.57;11.52;;;;;;;;;;4959083;28;20138;-80
2022/12/04 02:47:35;;;;;;;7.47;6.20;;;;;;;;;;4970968;28;20050;-81
2022/12/04 02:50:12;;;;;;;19.77;14.07;;;;;;;;;;4979837;28;20156;-80
2022/12/04 02:52:43;;;;;;;8.07;6.80;;;;;;;;;;4969486;28;20038;-80
2022/12/04 02:55:14;;;;;;;14.93;10.75;;;;;;;;;;4991300;28;20030;-80
2022/12/04 02:57:42;;;;;;;10.25;8.18;;;;;;;;;;4980891;28;20046;-80
2022/12/04 03:00:16;;;;;;;13.77;9.70;;;;;;;;;;4971056;28;20068;-80
2022/12/04 03:02:47;;;;;;;14.07;10.25;;;;;;;;;;4982092;28;20053;-81
2022/12/04 03:05:13;;;;;;;;;;;;;;;;;;4979793;28;20042;-78
2022/12/04 03:07:43;;;;;;;9.25;7.65;;;;;;;;;;4982840;28;20389;-78
2022/12/04 03:10:11;;;;;;;14.73;11.45;;;;;;;;;;4954227;28;20181;-77
2022/12/04 03:12:40;;;;;;;15.38;11.23;;;;;;;;;;4925899;28;20161;-77
2022/12/04 03:15:08;;;;;;;12.23;9.00;;;;;;;;;;4970354;28;20116;-78
2022/12/04 03:17:45;;;;;;;8.55;6.47;;;;;;;;;;4957111;28;20046;-78
2022/12/04 03:20:14;;;;;;;13.02;9.40;;;;;;;;;;4973339;28;20545;-78
2022/12/04 03:22:42;;;;;;;11.93;9.38;;;;;;;;;;4990122;28;20221;-78
2022/12/04 03:25:37;;;;;;;13.38;9.05;;;;;;;;;;4979825;28;20053;-78
2022/12/04 03:28:09;;;;;;;10.82;8.57;;;;;;;;;;4989294;28;20109;-77
2022/12/04 03:30:44;;;;;;;15.18;8.98;;;;;;;;;;4956428;28;20039;-78
2022/12/04 03:33:11;;;;;;;9.55;6.97;;;;;;;;;;4956971;28;20104;-76
2022/12/04 03:35:57;;;;;;;11.38;7.40;;;;;;;;;;4973285;28;20186;-77
2022/12/04 03:38:29;;;;;;;12.43;7.15;;;;;;;;;;4957018;28;20070;-77
2022/12/04 03:41:00;;;;;;;10.40;7.93;;;;;;;;;;4990559;28;20515;-77
2022/12/04 03:43:48;;;;;;;15.25;11.32;;;;;;;;;;4915225;28;20100;-76
2022/12/04 03:46:19;;;;;;;8.70;7.80;;;;;;;;;;4955420;28;20038;-76
2022/12/04 03:49:06;;;;;;;9.88;7.68;;;;;;;;;;4957498;28;20552;-77
2022/12/04 03:51:33;;;;;;;18.77;9.48;;;;;;;;;;4988685;28;20080;-77
2022/12/04 03:53:59;;;;;;;14.23;8.07;;;;;;;;;;4951711;28;20092;-77
2022/12/04 03:56:51;;;;;;;12.07;8.40;;;;;;;;;;4972920;28;20042;-77
2022/12/04 03:59:21;;;;;;;12.35;7.47;;;;;;;;;;4940484;28;20121;-77
2022/12/04 04:01:48;;;;;;;9.32;8.32;;;;;;;;;;4972806;28;20058;-77
2022/12/04 04:04:21;;;;;;;7.43;6.57;;;;;;;;;;4973181;28;20229;-78
2022/12/04 04:06:51;;;;;;;10.80;6.95;;;;;;;;;;4958307;28;20081;-78
2022/12/04 04:09:18;;;;;;;10.25;5.78;;;;;;;;;;4986063;28;20541;-78
2022/12/04 04:11:48;;;;;;;7.15;6.43;;;;;;;;;;4976280;28;20069;-79
2022/12/04 04:25:44;;;;;;;11.20;7.47;;;;;;;;;;4978447;28;20098;-78
2022/12/04 04:28:29;;;;;;;6.32;5.72;;;;;;;;;;4944468;28;20065;-77
2022/12/04 04:30:55;;;;;;;8.07;6.47;;;;;;;;;;4976640;28;20132;-77
2022/12/04 04:33:21;;;;;;;14.10;8.27;;;;;;;;;;4976136;28;20053;-78
2022/12/04 04:36:11;;;;;;;10.25;9.23;;;;;;;;;;4976400;28;20514;-77
2022/12/04 04:39:02;;;;;;;9.55;6.38;;;;;;;;;;4988443;28;20134;-78
2022/12/04 04:41:32;;;;;;;5.22;4.63;;;;;;;;;;4975916;28;20073;-77
2022/12/04 04:44:04;;;;;;;16.38;8.52;;;;;;;;;;5008561;28;20038;-77
2022/12/04 04:46:37;;;;;;;4.70;4.10;;;;;;;;;;4959913;28;20050;-78
2022/12/04 04:49:04;;;;;;;5.93;5.32;;;;;;;;;;4960337;28;20058;-77
2022/12/04 04:51:32;;;;;;;8.00;6.43;;;;;;;;;;4975659;28;20054;-77
2022/12/04 04:53:58;;;;;;;6.47;5.82;;;;;;;;;;4959980;28;20042;-78
2022/12/04 04:56:24;;;;;;;6.10;5.53;;;;;;;;;;4992691;28;20202;-78
2022/12/04 04:58:50;;;;;;;11.55;8.77;;;;;;;;;;4946034;28;20569;-78
2022/12/04 05:01:17;;;;;;;8.35;7.00;;;;;;;;;;4960289;28;20046;-78
2022/12/04 05:03:43;;;;;;;8.35;6.50;;;;;;;;;;4960075;28;20507;-78
2022/12/04 05:06:09;;;;;;;14.30;7.82;;;;;;;;;;4991804;28;20074;-78
2022/12/04 05:08:43;;;;;;;8.43;6.22;;;;;;;;;;4999840;28;20077;-78
2022/12/04 05:11:12;;;;;;;6.63;6.00;;;;;;;;;;4995521;28;20053;-79
2022/12/04 05:13:38;;;;;;;11.27;7.75;;;;;;;;;;4978485;28;20050;-78
2022/12/04 05:16:06;;;;;;;12.43;9.27;;;;;;;;;;5011191;28;20037;-78
2022/12/04 05:18:35;;;;;;;14.25;10.18;;;;;;;;;;4994631;28;20145;-78
2022/12/04 05:21:07;;;;;;;14.85;8.20;;;;;;;;;;5011324;28;20121;-78
2022/12/04 05:23:33;;;;;;;6.68;6.00;;;;;;;;;;4983988;28;20148;-80
2022/12/04 05:26:03;;;;;;;10.45;7.47;;;;;;;;;;5017358;28;20414;-80
2022/12/04 05:28:31;;;;;;;6.85;5.80;;;;;;;;;;4996893;28;20100;-80
2022/12/04 05:31:03;;;;;;;8.82;6.35;;;;;;;;;;4969063;28;20034;-79
2022/12/04 05:33:29;;;;;;;9.00;6.78;;;;;;;;;;4979585;28;20054;-79
2022/12/04 05:36:05;;;;;;;12.32;7.25;;;;;;;;;;4981258;28;20128;-80
2022/12/04 05:38:32;;;;;;;13.38;9.00;;;;;;;;;;4980554;28;20046;-79
2022/12/04 05:40:59;;;;;;;6.05;5.45;;;;;;;;;;4979603;28;20501;-79
2022/12/04 05:43:25;;;;;;;8.30;7.60;;;;;;;;;;4995465;28;20609;-79
2022/12/04 05:45:55;;;;;;;9.35;6.35;;;;;;;;;;5012255;28;20084;-80
2022/12/04 05:48:20;;;;;;;16.42;10.38;;;;;;;;;;4965605;28;20124;-79
2022/12/04 05:50:54;;;;;;;8.07;6.93;;;;;;;;;;5011512;28;20136;-79
2022/12/04 05:53:22;;;;;;;10.55;6.95;;;;;;;;;;4961888;28;20137;-78
2022/12/04 05:55:58;;;;;;;6.80;4.75;;;;;;;;;;4978497;28;20052;-78
2022/12/04 05:58:35;;;;;;;10.30;7.68;;;;;;;;;;4995527;28;20125;-79
2022/12/04 06:01:07;;;;;;;20.90;10.82;;;;;;;;;;4978690;28;20137;-79
2022/12/04 06:03:32;;;;;;;8.27;7.05;;;;;;;;;;4977811;28;20510;-79
2022/12/04 06:05:59;;;;;;;11.35;9.25;;;;;;;;;;4957067;28;20049;-78
2022/12/04 06:08:25;;;;;;;8.57;6.47;;;;;;;;;;4956843;28;20580;-78
2022/12/04 06:10:51;;;;;;;11.70;7.50;;;;;;;;;;4952274;28;20447;-75
2022/12/04 06:13:17;;;;;;;11.20;8.23;;;;;;;;;;4957115;28;20043;-75
2022/12/04 06:15:43;;;;;;;8.15;7.28;;;;;;;;;;4973068;28;20038;-75
2022/12/04 06:18:09;;;;;;;17.08;7.38;;;;;;;;;;4994433;28;20842;-76
2022/12/04 06:20:36;;;;;;;10.82;7.95;;;;;;;;;;4984954;28;20502;-77
2022/12/04 06:23:01;;;;;;;11.27;8.25;;;;;;;;;;4979251;28;20042;-77
2022/12/04 06:25:28;;;;;;;12.88;8.88;;;;;;;;;;4945426;28;20514;-77
2022/12/04 06:27:54;;;;;;;6.70;6.00;;;;;;;;;;4971101;28;20087;-76
2022/12/04 06:33:17;;;;;;;8.07;5.63;;;;;;;;;;4978275;28;20537;-74
2022/12/04 06:35:43;;;;;;;7.63;6.82;;;;;;;;;;4960545;28;20038;-75
2022/12/04 06:38:09;;;;;;;9.50;8.18;;;;;;;;;;4976371;28;20425;-75
2022/12/04 06:40:38;;;;;;;6.35;5.38;;;;;;;;;;4975966;28;20048;-75
2022/12/04 06:43:05;;;;;;;12.27;9.13;;;;;;;;;;4974888;28;20049;-76
2022/12/04 06:45:31;;;;;;;8.80;5.75;;;;;;;;;;4982347;28;20537;-76
2022/12/04 06:48:05;;;;;;;7.43;5.30;;;;;;;;;;5013298;28;20128;-75
2022/12/04 06:50:31;;;;;;;7.25;4.88;;;;;;;;;;4992163;28;20408;-76
2022/12/04 06:52:59;;;;;;;7.70;6.90;;;;;;;;;;4983371;28;20588;-76
2022/12/04 06:55:24;;;;;;;8.23;6.03;;;;;;;;;;4995488;28;20183;-76
2022/12/04 06:57:50;;;;;;;7.90;7.07;;;;;;;;;;4990196;28;20061;-76
2022/12/04 07:00:17;;;;;;;11.38;6.50;;;;;;;;;;4979744;28;20068;-76
2022/12/04 07:02:43;;;;;;;10.00;6.70;;;;;;;;;;4995246;28;20053;-76
2022/12/04 07:05:10;;;;;;;7.05;5.45;;;;;;;;;;4979732;28;20096;-76
2022/12/04 07:07:36;;;;;;;5.68;5.07;;;;;;;;;;4977647;28;20056;-75
2022/12/04 07:10:03;;;;;;;15.43;7.68;;;;;;;;;;4973019;28;20046;-75
2022/12/04 07:12:29;;;;;;;4.93;4.53;;;;;;;;;;4956650;28;20070;-77
2022/12/04 07:14:55;;;;;;;12.82;7.18;;;;;;;;;;4973144;28;20038;-77
2022/12/04 07:17:24;;;;;;;6.95;6.28;;;;;;;;;;4957694;28;20051;-77
2022/12/04 07:19:50;;;;;;;9.40;6.13;;;;;;;;;;4960079;28;20049;-77
2022/12/04 07:22:16;;;;;;;7.97;7.05;;;;;;;;;;4958369;28;20124;-77
2022/12/04 07:24:42;;;;;;;7.60;6.15;;;;;;;;;;4974885;28;20049;-75
2022/12/04 07:27:08;;;;;;;8.82;5.72;;;;;;;;;;4971954;28;20070;-77
2022/12/04 07:29:35;;;;;;;10.77;5.88;;;;;;;;;;4959481;28;20052;-76
2022/12/04 07:32:01;;;;;;;8.65;6.93;;;;;;;;;;4959181;28;20034;-76
2022/12/04 07:34:27;;;;;;;4.80;4.30;;;;;;;;;;4974873;28;20048;-75
2022/12/04 07:36:54;;;;;;;7.28;4.90;;;;;;;;;;4959667;28;20041;-76
2022/12/04 07:39:28;;;;;;;12.70;6.85;;;;;;;;;;4991736;28;20085;-77
2022/12/04 07:41:54;;;;;;;10.07;5.95;;;;;;;;;;4958659;28;20034;-77
2022/12/04 07:44:20;;;;;;;9.68;8.13;;;;;;;;;;4961813;28;20073;-77
2022/12/04 07:46:54;;;;;;;5.00;4.57;;;;;;;;;;4991971;28;20042;-78
2022/12/04 07:49:45;;;;;;;4.88;4.47;;;;;;;;;;4999625;28;20048;-77
2022/12/04 07:52:11;;;;;;;12.98;4.88;;;;;;;;;;4996011;28;20038;-77
2022/12/04 07:54:37;;;;;;;5.85;5.30;;;;;;;;;;4970506;28;20034;-78
2022/12/04 07:57:03;;;;;;;9.27;5.55;;;;;;;;;;4982310;28;20046;-78
2022/12/04 07:59:29;;;;;;;6.97;5.28;;;;;;;;;;4981639;28;20039;-77
2022/12/04 08:01:55;;;;;;;7.40;5.22;;;;;;;;;;4954759;28;20053;-78
2022/12/04 08:04:47;;;;;;;;;;;;;;;;;;5001651;28;20124;-80
2022/12/04 08:07:14;;;;;;;5.30;4.65;;;;;;;;;;4983716;28;19921;-78
2022/12/04 08:09:40;;;;;;;5.30;4.32;;;;;;;;;;4962934;28;20097;-79
2022/12/04 08:12:06;;;;;;;12.85;5.18;;;;;;;;;;4931574;28;20046;-78
2022/12/04 08:14:39;;;;;;;6.82;4.97;;;;;;;;;;4982959;28;20038;-74
2022/12/04 08:17:05;;;;;;;6.50;4.25;;;;;;;;;;4980000;28;20053;-77
2022/12/04 08:19:39;;;;;;;5.47;4.13;;;;;;;;;;4984376;28;20481;-75
2022/12/04 08:22:06;;;;;;;6.20;5.50;;;;;;;;;;4987603;28;20090;-77
2022/12/04 08:24:50;;;;;;;5.60;5.15;;;;;;;;;;4995958;28;20037;-78
2022/12/04 08:27:16;;;;;;;8.50;7.07;;;;;;;;;;4981838;28;20053;-78
2022/12/04 08:29:42;;;;;;;4.68;4.13;;;;;;;;;;4989774;28;20085;-77
2022/12/04 08:32:08;;;;;;;6.05;5.38;;;;;;;;;;5015726;28;20461;-77
2022/12/04 08:34:34;;;;;;;11.05;6.43;;;;;;;;;;5016060;28;20026;-76
2022/12/04 08:37:07;;;;;;;11.00;6.63;;;;;;;;;;5009395;28;20061;-76
2022/12/04 08:39:33;;;;;;;6.03;5.03;;;;;;;;;;5017568;28;20042;-76
2022/12/04 08:42:00;;;;;;;6.80;6.10;;;;;;;;;;5023325;28;20286;-78
2022/12/04 08:44:34;;;;;;;9.25;4.80;;;;;;;;;;5005907;28;20038;-78
2022/12/04 08:47:00;;;;;;;;;;;;;;;;;;5017146;28;20041;-80
2022/12/04 08:49:26;;;;;;;3.75;3.50;;;;;;;;;;5030688;28;19917;-78
2022/12/04 08:51:55;;;;;;;9.02;4.70;;;;;;;;;;5009657;28;20573;-79
2022/12/04 08:54:22;;;;;;;7.60;5.43;;;;;;;;;;4989279;28;20045;-77
2022/12/04 08:56:48;;;;;;;5.63;4.05;;;;;;;;;;5020220;28;20037;-79
2022/12/04 08:59:42;;;;;;;4.10;3.70;;;;;;;;;;5013177;28;20033;-78
2022/12/04 09:02:09;;;;;;;8.52;6.13;;;;;;;;;;4974277;28;20463;-78
2022/12/04 09:04:35;;;;;;;4.50;4.05;;;;;;;;;;4949723;28;20598;-76
2022/12/04 09:07:14;;;;;;;4.90;4.40;;;;;;;;;;5013776;28;20077;-78
2022/12/04 09:09:40;;;;;;;5.68;4.65;;;;;;;;;;4976572;28;20077;-77
2022/12/04 09:12:06;;;;;;;9.27;5.53;;;;;;;;;;4955815;28;20042;-77
2022/12/04 09:14:34;;;;;;;5.22;4.72;;;;;;;;;;4979879;28;20042;-78
2022/12/04 09:17:07;;;;;;;4.70;4.25;;;;;;;;;;4971308;28;20358;-78
2022/12/04 09:19:47;;;;;;;8.35;6.75;;;;;;;;;;4990816;28;20042;-78
2022/12/04 09:22:13;;;;;;;9.88;7.28;;;;;;;;;;4990248;28;20066;-77
2022/12/04 09:24:42;;;;;;;5.38;4.88;;;;;;;;;;4991233;28;20037;-78
2022/12/04 09:27:17;;;;;;;5.55;5.13;;;;;;;;;;5005187;28;20060;-78
2022/12/04 09:29:44;;;;;;;4.65;4.22;;;;;;;;;;4977330;28;20052;-78
2022/12/04 09:32:13;;;;;;;7.63;6.55;;;;;;;;;;4976763;28;20588;-78
2022/12/04 09:34:47;;;;;;;6.22;5.63;;;;;;;;;;4975255;28;20049;-80
2022/12/04 09:37:14;;;;;;;4.28;3.80;;;;;;;;;;4979188;28;20052;-78
2022/12/04 09:39:49;;;;;;;5.00;4.50;;;;;;;;;;4978862;28;20074;-79
2022/12/04 09:42:28;;;;;;;9.90;6.25;;;;;;;;;;4977068;28;20085;-78
2022/12/04 09:45:10;;;;;;;6.45;4.47;;;;;;;;;;4968185;28;20054;-78
2022/12/04 09:47:44;;;;;;;10.98;5.88;;;;;;;;;;4985887;28;20729;-78
2022/12/04 09:50:17;;;;;;;4.78;4.38;;;;;;;;;;4990886;28;20548;-78
2022/12/04 09:53:04;;;;;;;5.75;5.07;;;;;;;;;;4977380;28;20137;-78
2022/12/04 09:55:31;;;;;;;6.00;5.40;;;;;;;;;;4973855;28;20153;-78
2022/12/04 09:57:58;;;;;;;8.00;6.18;;;;;;;;;;5009591;28;20038;-78
2022/12/04 10:00:32;;;;;;;2.55;2.35;;;;;;;;;;4976834;28;20042;-77
2022/12/04 10:03:11;;;;;;;5.70;4.57;;;;;;;;;;4990923;28;21012;-77
2022/12/04 10:05:43;;;;;;;7.15;5.55;;;;;;;;;;4961547;28;20038;-78
2022/12/04 10:08:15;;;;;;;6.20;3.67;;;;;;;;;;5008855;28;20077;-77
2022/12/04 10:10:42;;;;;;;3.75;3.45;;;;;;;;;;4960601;28;20038;-78
2022/12/04 10:13:27;;;;;;;7.10;4.82;;;;;;;;;;4976653;28;20109;-78
2022/12/04 10:16:01;;;;;;;3.95;3.60;;;;;;;;;;5010838;28;20599;-78
2022/12/04 10:18:37;;;;;;;4.15;3.83;;;;;;;;;;4958020;28;20139;-78
2022/12/04 10:21:10;;;;;;;4.93;4.40;;;;;;;;;;4973528;28;20538;-78
2022/12/04 10:23:59;;;;;;;4.65;4.10;;;;;;;;;;4980404;28;20068;-78
2022/12/04 10:26:27;;;;;;;5.00;4.60;;;;;;;;;;5020932;28;20089;-78
2022/12/04 10:29:03;;;;;;;4.78;4.22;;;;;;;;;;4944948;28;20054;-77
2022/12/04 10:31:33;;;;;;;4.82;4.05;;;;;;;;;;4982958;28;20408;-77
2022/12/04 10:34:14;;;;;;;7.60;5.00;;;;;;;;;;4987751;28;20085;-77
2022/12/04 10:36:41;;;;;;;12.80;4.97;;;;;;;;;;4990402;28;20541;-77
2022/12/04 10:39:10;;;;;;;3.83;3.38;;;;;;;;;;4986329;28;20101;-77
2022/12/04 10:41:44;;;;;;;3.90;3.42;;;;;;;;;;4967951;28;20066;-77
2022/12/04 10:44:16;;;;;;;6.82;6.18;;;;;;;;;;4973711;28;20035;-79
2022/12/04 10:46:44;;;;;;;5.68;3.78;;;;;;;;;;4944204;28;20137;-78
2022/12/04 10:49:27;;;;;;;4.30;3.28;;;;;;;;;;4975287;28;20091;-77
2022/12/04 10:51:54;;;;;;;4.78;4.38;;;;;;;;;;4987248;28;20057;-77
2022/12/04 10:54:22;;;;;;;3.88;3.35;;;;;;;;;;4976643;28;20103;-77
2022/12/04 10:56:58;;;;;;;6.78;6.18;;;;;;;;;;4990486;28;20449;-77
2022/12/04 11:02:21;;;;;;;6.20;4.63;;;;;;;;;;4985945;28;20057;-77
2022/12/04 11:04:55;;;;;;;4.40;4.07;;;;;;;;;;4991553;28;20117;-78
2022/12/04 11:07:34;;;;;;;3.22;3.03;;;;;;;;;;4984627;28;20740;-78
2022/12/04 11:10:19;;;;;;;5.32;4.78;;;;;;;;;;5009819;28;20041;-78
2022/12/04 11:13:02;;;;;;;3.33;3.10;;;;;;;;;;4976665;28;20125;-78
2022/12/04 11:15:29;;;;;;;5.60;4.38;;;;;;;;;;4977102;28;20052;-78
2022/12/04 11:18:05;;;;;;;6.15;4.45;;;;;;;;;;4959936;28;20038;-78
2022/12/04 11:20:31;;;;;;;7.60;5.55;;;;;;;;;;4961091;28;20042;-77
2022/12/04 11:22:58;;;;;;;5.95;4.45;;;;;;;;;;5009021;28;20140;-78
2022/12/04 11:25:25;;;;;;;7.10;6.10;;;;;;;;;;4972957;28;20049;-79
2022/12/04 11:27:53;;;;;;;5.05;3.63;;;;;;;;;;4974874;28;20073;-79
2022/12/04 11:30:45;;;;;;;8.38;5.40;;;;;;;;;;4942898;28;20575;-78
2022/12/04 11:33:51;;;;;;;5.82;4.32;;;;;;;;;;4980028;28;20038;-79
2022/12/04 11:36:20;;;;;;;3.97;3.60;;;;;;;;;;4973075;28;20069;-78
2022/12/04 11:38:48;;;;;;;5.03;4.53;;;;;;;;;;4990879;28;20136;-78
2022/12/04 11:41:24;;;;;;;6.10;3.35;;;;;;;;;;4973827;28;20136;-79
2022/12/04 11:43:50;;;;;;;13.70;5.68;;;;;;;;;;4955460;28;20064;-77
2022/12/04 11:46:20;;;;;;;9.93;4.60;;;;;;;;;;4985799;28;20050;-78
2022/12/04 11:49:22;;;;;;;4.13;3.83;;;;;;;;;;4947815;28;20041;-78
2022/12/04 11:51:48;;;;;;;;;;;;;;;;;;4997011;28;20038;-78
2022/12/04 11:54:18;;;;;;;4.82;4.43;;;;;;;;;;4992762;28;19937;-78
2022/12/04 11:56:46;;;;;;;5.00;4.53;;;;;;;;;;4976502;28;20056;-78
2022/12/04 11:59:15;;;;;;;6.45;5.63;;;;;;;;;;4976665;28;20073;-79
2022/12/04 12:01:44;;;;;;;4.32;3.45;;;;;;;;;;4992091;28;20049;-78
2022/12/04 12:04:10;;;;;;;6.68;4.00;;;;;;;;;;4988265;28;20046;-78
2022/12/04 12:06:59;;;;;;;5.93;4.43;;;;;;;;;;5005827;28;20041;-78
2022/12/04 12:09:25;;;;;;;4.65;4.25;;;;;;;;;;4992720;28;20060;-77
2022/12/04 12:12:17;;;;;;;4.50;4.07;;;;;;;;;;4992307;28;20522;-78
2022/12/04 12:14:52;;;;;;;3.72;3.45;;;;;;;;;;4898769;29;20111;-78
2022/12/04 12:17:32;;;;;;;2.78;2.67;;;;;;;;;;5025485;28;20041;-78
2022/12/04 12:20:16;;;;;;;4.45;4.15;;;;;;;;;;4952289;28;20078;-78
2022/12/04 12:22:58;;;;;;;4.88;4.47;;;;;;;;;;4968443;28;20535;-78
2022/12/04 12:25:29;;;;;;;2.85;2.65;;;;;;;;;;4968487;28;20041;-78
2022/12/04 12:27:55;;;;;;;;;;;;;;;;;;4920982;28;20055;-78
2022/12/04 12:30:21;;;;;;;4.13;3.83;;;;;;;;;;4955809;28;19914;-78
2022/12/04 12:32:52;;;;;;;3.25;2.95;;;;;;;;;;4940108;28;20323;-78
2022/12/04 12:35:23;;;;;;;5.90;4.70;;;;;;;;;;4972614;28;20047;-78
2022/12/04 12:37:50;;;;;;;8.05;4.72;;;;;;;;;;4939884;28;20046;-78
2022/12/04 12:40:29;;;;;;;4.78;4.35;;;;;;;;;;4956164;28;20620;-78
2022/12/04 12:43:11;;;;;;;6.72;5.28;;;;;;;;;;4971966;28;20046;-78
2022/12/04 12:45:38;;;;;;;6.68;4.32;;;;;;;;;;4972075;28;20099;-78
2022/12/04 12:48:27;;;;;;;6.57;5.90;;;;;;;;;;4971848;28;20442;-78
2022/12/04 12:51:05;;;;;;;5.65;5.15;;;;;;;;;;4937954;28;20053;-78
2022/12/04 12:53:39;;;;;;;5.93;5.05;;;;;;;;;;4955903;28;20050;-79
2022/12/04 12:56:05;;;;;;;6.95;6.10;;;;;;;;;;4956297;28;20039;-78
2022/12/04 12:58:34;;;;;;;6.43;5.22;;;;;;;;;;4958278;28;20043;-78
2022/12/04 13:01:10;;;;;;;5.55;4.88;;;;;;;;;;4960097;28;20067;-79
2022/12/04 13:03:55;;;;;;;4.85;4.25;;;;;;;;;;4944604;28;20089;-77
2022/12/04 13:06:24;;;;;;;5.82;5.43;;;;;;;;;;4976501;28;20133;-78
2022/12/04 13:08:56;;;;;;;6.30;4.50;;;;;;;;;;4959897;28;20057;-78
2022/12/04 13:11:25;;;;;;;9.25;4.80;;;;;;;;;;4976903;28;20573;-78
2022/12/04 13:13:52;;;;;;;5.00;4.53;;;;;;;;;;4960569;28;20049;-78
2022/12/04 13:16:19;;;;;;;6.05;5.45;;;;;;;;;;4962859;28;20108;-78
2022/12/04 13:18:48;;;;;;;3.83;3.53;;;;;;;;;;4959058;28;20050;-78
2022/12/04 13:21:27;;;;;;;11.98;5.00;;;;;;;;;;4960067;28;20042;-77
2022/12/04 13:23:56;;;;;;;6.90;5.93;;;;;;;;;;4975662;28;20042;-78
2022/12/04 13:26:56;;;;;;;6.18;5.32;;;;;;;;;;4978916;28;20047;-78
2022/12/04 13:29:53;;;;;;;4.13;3.78;;;;;;;;;;4961213;28;20552;-77
2022/12/04 13:33:00;;;;;;;5.22;4.72;;;;;;;;;;4975825;28;20050;-78
2022/12/04 13:35:45;;;;;;;7.07;4.70;;;;;;;;;;4959733;28;20042;-77
2022/12/04 13:38:17;;;;;;;3.97;3.65;;;;;;;;;;4959633;28;20549;-77
2022/12/04 13:41:10;;;;;;;5.50;5.03;;;;;;;;;;4943763;28;20054;-77
2022/12/04 13:43:46;;;;;;;4.18;3.80;;;;;;;;;;4972061;28;20053;-77
2022/12/04 13:46:19;;;;;;;6.20;4.75;;;;;;;;;;4943722;28;20574;-77
2022/12/04 13:48:48;;;;;;;10.00;5.57;;;;;;;;;;4966826;28;20045;-77
2022/12/04 13:54:33;;;;;;;4.88;4.40;;;;;;;;;;5014266;28;20073;-77
2022/12/04 13:57:15;;;;;;;7.88;6.05;;;;;;;;;;4997530;28;20136;-78
2022/12/04 13:59:42;;;;;;;7.30;6.05;;;;;;;;;;5014379;28;20042;-78
2022/12/04 14:02:28;;;;;;;5.18;4.35;;;;;;;;;;4997536;28;20057;-78
2022/12/04 14:04:57;;;;;;;6.55;5.53;;;;;;;;;;4997628;28;20056;-78
2022/12/04 14:07:25;;;;;;;2.95;2.70;;;;;;;;;;4996135;28;20045;-78
2022/12/04 14:09:52;;;;;;;5.50;4.55;;;;;;;;;;4958007;28;20052;-77
2022/12/04 14:12:22;;;;;;;7.82;6.13;;;;;;;;;;4979994;28;20046;-78
2022/12/04 14:15:12;;;;;;;7.70;5.73;;;;;;;;;;4961796;28;20054;-77
2022/12/04 14:17:42;;;;;;;5.57;5.05;;;;;;;;;;4965338;28;20272;-77
2022/12/04 14:20:23;;;;;;;4.55;4.15;;;;;;;;;;5014805;28;20080;-79
2022/12/04 14:22:52;;;;;;;;;;;;;;;;;;4978796;28;20469;-79
2022/12/04 14:25:42;;;;;;;5.68;4.20;;;;;;;;;;5004268;28;20378;-80
2022/12/04 14:28:21;;;;;;;3.78;3.47;;;;;;;;;;5011025;28;20050;-79
2022/12/04 14:30:55;;;;;;;4.68;4.20;;;;;;;;;;4971032;28;20510;-76
2022/12/04 14:33:21;;;;;;;6.72;4.78;;;;;;;;;;4974133;28;20052;-77
2022/12/04 14:35:54;;;;;;;5.90;4.75;;;;;;;;;;4990703;28;20041;-74
2022/12/04 14:38:20;;;;;;;5.25;4.47;;;;;;;;;;4980836;28;20045;-76
2022/12/04 14:40:56;;;;;;;2.97;2.80;;;;;;;;;;4980352;28;20041;-77
2022/12/04 14:43:27;;;;;;;6.25;5.38;;;;;;;;;;5013359;28;20136;-76
2022/12/04 14:45:54;;;;;;;5.35;4.88;;;;;;;;;;4987915;28;20486;-76
2022/12/04 14:48:32;;;;;;;5.45;4.95;;;;;;;;;;5010516;28;20061;-75
2022/12/04 14:51:19;;;;;;;4.85;4.47;;;;;;;;;;4992395;28;20042;-80
2022/12/04 14:54:10;;;;;;;7.35;5.45;;;;;;;;;;4991467;28;20042;-77
2022/12/04 14:56:36;;;;;;;7.15;6.57;;;;;;;;;;4993393;28;20046;-79
2022/12/04 14:59:06;;;;;;;7.53;6.22;;;;;;;;;;4977875;28;20049;-79
2022/12/04 15:01:35;;;;;;;6.22;5.28;;;;;;;;;;4977757;28;20062;-77
2022/12/04 15:04:05;;;;;;;6.88;6.28;;;;;;;;;;4961812;28;20037;-78
2022/12/04 15:06:31;;;;;;;8.07;4.25;;;;;;;;;;4975413;28;20073;-77
2022/12/04 15:15:11;;;;;;;6.03;5.15;;;;;;;;;;4995069;28;20477;-77
2022/12/04 15:17:37;;;;;;;8.50;6.45;;;;;;;;;;4995335;28;20042;-78
2022/12/04 15:20:35;;;;;;;6.00;5.45;;;;;;;;;;4984093;28;20048;-78
2022/12/04 15:23:02;;;;;;;5.75;5.05;;;;;;;;;;4946562;28;20050;-77
2022/12/04 15:25:35;;;;;;;6.18;5.03;;;;;;;;;;4993967;28;20751;-78
2022/12/04 15:28:17;;;;;;;9.38;6.18;;;;;;;;;;4975521;28;20544;-77
2022/12/04 15:30:43;;;;;;;10.65;7.47;;;;;;;;;;5002622;28;20057;-78
2022/12/04 15:33:23;;;;;;;8.23;5.75;;;;;;;;;;5024703;28;20037;-76